Time;durP1;ratioP1;P1;durP2;ratioP2;P2;SDS_P1;SDS_P2;PMS_P1;PMS_P2;Temp;Humidity;BMP_temperature;BMP_pressure;BME280_temperature;BME280_humidity;BME280_pressure;Samples;Min_cycle;Max_cycle;Signal;HPM_P1;HPM_P2
2023/03/24 00:01:50;;;;;;;1.67;0.80;;;12.10;99.90;;;;;;5075647;28;20445;-83
2023/03/24 00:04:17;;;;;;;1.60;1.00;;;12.10;99.90;;;;;;5074944;28;21024;-83
2023/03/24 00:06:44;;;;;;;2.97;1.13;;;12.10;99.90;;;;;;5075168;28;20814;-83
2023/03/24 00:09:11;;;;;;;0.90;0.80;;;12.10;99.90;;;;;;5074616;28;20469;-83
2023/03/24 00:11:39;;;;;;;1.50;0.70;;;12.10;99.90;;;;;;5075068;28;20457;-83
2023/03/24 00:14:05;;;;;;;1.03;0.83;;;12.10;99.90;;;;;;5074963;28;20538;-83
2023/03/24 00:16:33;;;;;;;0.60;0.60;;;12.10;99.90;;;;;;5074672;28;20942;-83
2023/03/24 00:19:00;;;;;;;0.80;0.80;;;12.10;99.90;;;;;;5074869;28;20469;-83
2023/03/24 00:21:27;;;;;;;2.30;0.87;;;12.10;99.90;;;;;;5074891;28;20453;-83
2023/03/24 00:23:57;;;;;;;1.00;0.77;;;12.10;99.90;;;;;;5074856;28;20812;-84
2023/03/24 00:26:24;;;;;;;2.63;1.03;;;12.20;99.90;;;;;;5074734;28;20528;-83
2023/03/24 00:28:53;;;;;;;1.40;0.50;;;12.20;99.90;;;;;;5074467;28;20458;-84
2023/03/24 00:31:20;;;;;;;1.00;0.90;;;12.20;99.90;;;;;;5074374;28;20449;-83
2023/03/24 00:33:49;;;;;;;1.33;0.60;;;12.30;99.90;;;;;;5074242;28;20570;-83
2023/03/24 00:36:18;;;;;;;1.23;0.60;;;12.40;99.90;;;;;;5074291;28;20945;-84
2023/03/24 00:38:47;;;;;;;0.77;0.70;;;12.30;99.90;;;;;;5074151;28;20998;-84
2023/03/24 00:41:16;;;;;;;0.70;0.50;;;12.30;99.90;;;;;;5074234;28;20851;-83
2023/03/24 00:43:43;;;;;;;0.50;0.50;;;12.20;99.90;;;;;;5074460;28;20450;-83
2023/03/24 00:46:27;;;;;;;0.80;0.60;;;12.30;99.90;;;;;;5074134;28;20433;-83
2023/03/24 00:48:56;;;;;;;1.03;0.70;;;12.30;99.90;;;;;;5073829;28;21006;-83
2023/03/24 00:51:23;;;;;;;0.63;0.63;;;12.30;99.90;;;;;;5074366;28;20434;-84
2023/03/24 00:53:56;;;;;;;1.33;0.97;;;12.20;99.90;;;;;;5073946;28;20485;-84
2023/03/24 00:56:24;;;;;;;1.17;0.67;;;12.10;99.90;;;;;;5074228;28;20457;-84
2023/03/24 00:58:51;;;;;;;1.27;0.87;;;12.10;99.90;;;;;;5074061;28;20468;-84
2023/03/24 01:01:20;;;;;;;1.00;0.50;;;12.10;99.90;;;;;;5074172;28;20461;-84
2023/03/24 01:03:49;;;;;;;0.90;0.63;;;12.10;99.90;;;;;;5074063;28;20991;-84
2023/03/24 01:06:17;;;;;;;1.93;0.67;;;12.10;99.90;;;;;;5074835;28;20481;-84
2023/03/24 01:08:44;;;;;;;0.70;0.70;;;12.20;99.90;;;;;;5073946;28;20469;-84
2023/03/24 01:11:11;;;;;;;2.07;0.90;;;12.20;99.90;;;;;;5073905;28;20465;-84
2023/03/24 01:13:39;;;;;;;0.73;0.70;;;12.20;99.90;;;;;;5073833;28;20492;-84
2023/03/24 01:16:07;;;;;;;0.43;0.43;;;12.20;99.90;;;;;;5073498;28;20458;-84
2023/03/24 01:18:39;;;;;;;1.83;0.80;;;12.30;99.90;;;;;;5073776;28;20477;-83
2023/03/24 01:21:07;;;;;;;2.10;0.90;;;12.30;99.90;;;;;;5073082;28;20433;-84
2023/03/24 01:23:34;;;;;;;0.47;0.40;;;12.30;99.90;;;;;;5073492;28;20461;-83
2023/03/24 01:26:05;;;;;;;0.50;0.50;;;12.30;99.90;;;;;;5073385;28;20929;-84
2023/03/24 01:28:32;;;;;;;1.67;0.80;;;12.30;99.90;;;;;;5073628;28;20472;-84
2023/03/24 01:30:59;;;;;;;1.40;0.80;;;12.30;99.90;;;;;;5073625;28;20460;-84
2023/03/24 01:33:25;;;;;;;2.13;0.83;;;12.40;99.90;;;;;;5073497;28;20492;-84
2023/03/24 01:35:54;;;;;;;0.40;0.40;;;12.30;99.90;;;;;;5073845;28;20446;-83
2023/03/24 01:38:21;;;;;;;0.60;0.60;;;12.20;99.90;;;;;;5073355;28;20891;-84
2023/03/24 01:40:47;;;;;;;0.50;0.50;;;12.10;99.90;;;;;;5073492;28;20445;-84
2023/03/24 01:43:18;;;;;;;0.43;0.40;;;12.10;99.90;;;;;;5073532;28;20449;-84
2023/03/24 01:45:58;;;;;;;0.50;0.50;;;12.10;99.90;;;;;;5073504;28;20925;-84
2023/03/24 01:48:29;;;;;;;0.50;0.50;;;12.10;99.90;;;;;;5073183;28;20465;-84
2023/03/24 01:51:01;;;;;;;0.60;0.57;;;12.10;99.90;;;;;;5073469;28;20465;-84
2023/03/24 01:53:30;;;;;;;1.13;0.90;;;12.10;99.90;;;;;;5073031;28;20469;-84
2023/03/24 01:55:56;;;;;;;4.80;0.93;;;12.10;99.90;;;;;;5073864;28;20460;-84
2023/03/24 01:58:27;;;;;;;1.70;0.80;;;12.20;99.90;;;;;;5073336;28;20803;-84
2023/03/24 02:00:53;;;;;;;1.00;0.67;;;12.20;99.90;;;;;;5073141;28;20425;-84
2023/03/24 02:03:23;;;;;;;0.50;0.50;;;12.20;99.90;;;;;;5073259;28;20445;-84
2023/03/24 02:05:52;;;;;;;1.23;0.67;;;12.30;99.90;;;;;;5073215;28;20453;-84
2023/03/24 02:08:25;;;;;;;0.90;0.70;;;12.30;99.90;;;;;;5072850;28;20449;-84
2023/03/24 02:10:54;;;;;;;0.93;0.60;;;12.40;99.90;;;;;;5073467;28;20433;-84
2023/03/24 02:13:22;;;;;;;1.40;0.67;;;12.40;99.90;;;;;;5073058;28;20450;-84
2023/03/24 02:15:59;;;;;;;0.60;0.43;;;12.50;99.90;;;;;;5073194;28;20500;-84
2023/03/24 02:18:34;;;;;;;0.63;0.60;;;12.60;99.90;;;;;;5073129;28;20812;-84
2023/03/24 02:21:27;;;;;;;0.80;0.80;;;12.60;99.90;;;;;;5073175;28;20436;-84
2023/03/24 02:24:32;;;;;;;1.33;0.70;;;12.50;99.90;;;;;;5060250;28;20445;-83
2023/03/24 02:27:06;;;;;;;0.80;0.60;;;12.50;99.90;;;;;;5073069;28;20452;-84
2023/03/24 02:30:00;;;;;;;1.63;0.80;;;12.60;99.90;;;;;;5073034;28;20465;-84
2023/03/24 02:32:57;;;;;;;0.73;0.60;;;12.50;99.90;;;;;;5074213;28;20438;-84
2023/03/24 02:35:44;;;;;;;1.10;0.60;;;12.50;99.90;;;;;;5076950;28;20501;-86
2023/03/24 02:38:29;;;;;;;1.10;1.00;;;12.50;99.90;;;;;;5076904;28;20417;-86
2023/03/24 02:41:05;;;;;;;0.90;0.70;;;12.50;99.90;;;;;;5077055;28;20433;-86
2023/03/24 02:43:42;;;;;;;0.40;0.40;;;12.50;99.90;;;;;;5076930;28;20941;-87
2023/03/24 02:46:17;;;;;;;0.90;0.60;;;12.40;99.90;;;;;;5076631;28;20424;-87
2023/03/24 02:48:55;;;;;;;0.77;0.77;;;12.40;99.90;;;;;;5076897;28;20975;-86
2023/03/24 02:51:27;;;;;;;0.63;0.63;;;12.40;99.90;;;;;;5076635;28;20429;-87
2023/03/24 02:54:01;;;;;;;0.90;0.50;;;12.40;99.90;;;;;;5076395;28;20465;-87
2023/03/24 02:56:36;;;;;;;0.50;0.50;;;12.40;99.90;;;;;;5076764;28;20443;-87
2023/03/24 02:59:05;;;;;;;1.43;0.50;;;12.50;99.90;;;;;;5076398;28;20979;-87
2023/03/24 03:01:36;;;;;;;0.50;0.50;;;12.40;99.90;;;;;;5076433;28;20800;-87
2023/03/24 03:04:08;;;;;;;0.40;0.40;;;12.40;99.90;;;;;;5076557;28;20866;-87
2023/03/24 03:06:38;;;;;;;3.47;0.73;;;12.40;99.90;;;;;;5076300;28;20432;-87
2023/03/24 03:09:10;;;;;;;0.50;0.40;;;12.40;99.90;;;;;;5076506;28;20473;-87
2023/03/24 03:11:41;;;;;;;1.90;0.80;;;12.50;99.90;;;;;;5076208;28;20418;-87
2023/03/24 03:14:12;;;;;;;1.03;1.03;;;12.60;99.90;;;;;;5076741;28;20838;-87
2023/03/24 03:16:45;;;;;;;0.80;0.50;;;12.70;99.90;;;;;;5076492;28;20426;-87
2023/03/24 03:19:17;;;;;;;0.47;0.47;;;12.70;99.90;;;;;;5076653;28;20531;-87
2023/03/24 03:21:46;;;;;;;1.37;0.70;;;12.70;99.90;;;;;;5076340;28;20443;-87
2023/03/24 03:24:16;;;;;;;0.70;0.70;;;12.70;99.90;;;;;;5075924;28;20805;-87
2023/03/24 03:26:46;;;;;;;1.00;0.60;;;12.70;99.90;;;;;;5076548;28;20418;-87
2023/03/24 03:29:20;;;;;;;0.70;0.70;;;12.70;99.90;;;;;;5076079;28;20500;-87
2023/03/24 03:31:52;;;;;;;1.00;0.63;;;12.70;99.90;;;;;;5076045;28;20463;-87
2023/03/24 03:34:29;;;;;;;1.13;0.60;;;12.70;99.90;;;;;;5075867;28;20852;-87
2023/03/24 03:37:02;;;;;;;0.80;0.50;;;12.60;99.90;;;;;;5076059;28;20468;-87
2023/03/24 03:39:30;;;;;;;2.97;1.03;;;12.60;99.90;;;;;;5076046;28;20554;-87
2023/03/24 03:41:59;;;;;;;0.53;0.53;;;12.60;99.90;;;;;;5075902;28;20851;-87
2023/03/24 03:44:25;;;;;;;0.77;0.60;;;12.50;99.90;;;;;;5074997;28;20445;-87
2023/03/24 03:46:53;;;;;;;0.80;0.60;;;12.50;99.90;;;;;;5075763;28;20453;-87
2023/03/24 03:49:20;;;;;;;2.67;0.80;;;12.50;99.90;;;;;;5075462;28;20480;-87
2023/03/24 03:51:47;;;;;;;0.80;0.80;;;12.50;99.90;;;;;;5075902;28;20445;-87
2023/03/24 03:54:16;;;;;;;0.50;0.50;;;12.50;99.90;;;;;;5075673;28;20556;-87
2023/03/24 03:56:43;;;;;;;0.73;0.63;;;12.50;99.90;;;;;;5075585;28;20434;-87
2023/03/24 03:59:24;;;;;;;0.57;0.57;;;12.60;99.90;;;;;;5075592;28;20881;-87
2023/03/24 04:01:51;;;;;;;0.93;0.70;;;12.60;99.90;;;;;;5075577;28;20819;-88
2023/03/24 04:04:36;;;;;;;0.70;0.63;;;12.60;99.90;;;;;;5075531;28;20430;-87
2023/03/24 04:07:12;;;;;;;1.10;0.93;;;12.60;99.90;;;;;;5075555;28;20802;-87
2023/03/24 04:09:55;;;;;;;1.73;0.67;;;12.70;99.90;;;;;;5075268;28;20472;-87
2023/03/24 04:12:39;;;;;;;0.80;0.70;;;12.70;99.90;;;;;;5075359;28;20430;-87
2023/03/24 04:15:26;;;;;;;0.67;0.63;;;12.70;99.90;;;;;;5075332;28;20466;-87
2023/03/24 04:18:06;;;;;;;1.83;0.80;;;12.60;99.90;;;;;;5075014;28;20437;-88
2023/03/24 04:20:45;;;;;;;0.47;0.40;;;12.60;99.90;;;;;;5075177;28;20436;-87
2023/03/24 04:23:25;;;;;;;0.90;0.80;;;12.60;99.90;;;;;;5075346;28;20473;-88
2023/03/24 04:26:02;;;;;;;1.27;1.07;;;12.50;99.90;;;;;;5076135;28;20514;-87
2023/03/24 04:28:36;;;;;;;0.87;0.53;;;12.60;99.90;;;;;;5075049;28;20504;-87
2023/03/24 04:31:08;;;;;;;4.27;0.70;;;12.70;99.90;;;;;;5074995;28;20442;-87
2023/03/24 04:33:41;;;;;;;2.30;0.70;;;12.70;99.90;;;;;;5075096;28;20445;-88
2023/03/24 04:36:17;;;;;;;1.23;0.83;;;12.70;99.90;;;;;;5074982;28;20837;-87
2023/03/24 04:38:47;;;;;;;1.10;0.90;;;12.70;99.90;;;;;;5074716;28;20563;-87
2023/03/24 04:41:16;;;;;;;0.87;0.70;;;12.80;99.90;;;;;;5074921;28;20531;-87
2023/03/24 04:43:46;;;;;;;2.10;0.80;;;12.80;99.90;;;;;;5074731;28;20446;-87
2023/03/24 04:46:16;;;;;;;0.90;0.80;;;12.80;99.90;;;;;;5074711;28;20503;-87
2023/03/24 04:48:43;;;;;;;0.70;0.50;;;12.80;99.90;;;;;;5074275;28;20489;-87
2023/03/24 04:51:11;;;;;;;1.00;0.60;;;12.80;99.90;;;;;;5074636;28;20775;-87
2023/03/24 04:53:38;;;;;;;0.87;0.60;;;12.80;99.90;;;;;;5074473;28;21002;-87
2023/03/24 04:56:19;;;;;;;0.70;0.57;;;12.90;99.90;;;;;;5074027;28;20473;-87
2023/03/24 04:58:45;;;;;;;0.50;0.50;;;12.90;99.90;;;;;;5074240;28;20449;-87
2023/03/24 05:01:15;;;;;;;0.60;0.60;;;12.90;99.90;;;;;;5074274;28;20438;-87
2023/03/24 05:03:44;;;;;;;1.13;0.60;;;12.90;99.90;;;;;;5074597;28;20437;-87
2023/03/24 05:06:11;;;;;;;0.60;0.53;;;13.00;99.90;;;;;;5074511;28;20496;-88
2023/03/24 05:08:38;;;;;;;0.87;0.70;;;13.10;99.90;;;;;;5073867;28;20501;-87
2023/03/24 05:11:05;;;;;;;1.57;0.70;;;13.10;99.90;;;;;;5074168;28;20434;-83
2023/03/24 05:13:32;;;;;;;0.63;0.63;;;13.10;99.90;;;;;;5073642;28;20457;-83
2023/03/24 05:15:58;;;;;;;1.00;0.60;;;13.10;99.90;;;;;;5073806;28;20477;-83
2023/03/24 05:18:26;;;;;;;0.73;0.67;;;13.00;99.90;;;;;;5073517;28;20464;-83
2023/03/24 05:20:53;;;;;;;0.93;0.50;;;13.10;99.90;;;;;;5073752;28;20457;-83
2023/03/24 05:23:20;;;;;;;0.70;0.70;;;12.90;99.90;;;;;;5073741;28;20446;-83
2023/03/24 05:25:47;;;;;;;1.60;1.00;;;12.80;99.90;;;;;;5073696;28;20441;-83
2023/03/24 05:28:14;;;;;;;0.80;0.57;;;12.80;99.90;;;;;;5073329;28;20967;-83
2023/03/24 05:30:41;;;;;;;1.17;0.60;;;12.70;99.90;;;;;;5073328;28;20445;-83
2023/03/24 05:33:07;;;;;;;0.93;0.80;;;12.50;99.90;;;;;;5073298;28;20446;-83
2023/03/24 05:35:36;;;;;;;2.00;1.00;;;12.50;99.90;;;;;;5073213;28;21024;-83
2023/03/24 05:38:02;;;;;;;2.73;0.70;;;12.40;99.90;;;;;;5073117;28;20973;-83
2023/03/24 05:40:29;;;;;;;2.73;0.50;;;12.40;99.90;;;;;;5073494;28;20452;-83
2023/03/24 05:42:56;;;;;;;1.00;0.60;;;12.30;99.90;;;;;;5073465;28;20447;-83
2023/03/24 05:45:23;;;;;;;1.07;0.70;;;12.20;99.90;;;;;;5073169;28;20933;-82
2023/03/24 05:47:50;;;;;;;0.60;0.60;;;12.20;99.90;;;;;;5073398;28;20456;-83
2023/03/24 05:50:17;;;;;;;0.60;0.50;;;12.10;99.90;;;;;;5072927;28;20543;-83
2023/03/24 05:52:45;;;;;;;2.50;0.90;;;12.10;99.90;;;;;;5073366;28;20457;-83
2023/03/24 05:55:14;;;;;;;0.57;0.40;;;12.10;99.90;;;;;;5072971;28;21019;-83
2023/03/24 05:57:42;;;;;;;0.40;0.40;;;12.10;99.90;;;;;;5073285;28;20556;-83
2023/03/24 06:00:15;;;;;;;0.67;0.50;;;12.10;99.90;;;;;;5073228;28;20511;-83
2023/03/24 06:02:42;;;;;;;0.43;0.43;;;12.00;99.90;;;;;;5072994;28;20434;-83
2023/03/24 06:05:09;;;;;;;1.10;0.60;;;12.00;99.90;;;;;;5072952;28;20972;-83
2023/03/24 06:07:37;;;;;;;0.60;0.60;;;12.00;99.90;;;;;;5076891;28;20448;-83
2023/03/24 06:10:06;;;;;;;1.83;0.50;;;12.00;99.90;;;;;;5079771;28;20527;-83
2023/03/24 06:12:33;;;;;;;0.70;0.60;;;12.00;99.90;;;;;;5079586;28;20453;-83
2023/03/24 06:15:00;;;;;;;0.73;0.63;;;12.00;99.90;;;;;;5079805;28;20853;-83
2023/03/24 06:17:29;;;;;;;1.27;0.70;;;12.00;99.90;;;;;;5079821;28;20514;-83
2023/03/24 06:20:01;;;;;;;0.63;0.60;;;12.00;99.90;;;;;;5079471;28;20450;-83
2023/03/24 06:22:28;;;;;;;1.47;0.60;;;12.00;99.90;;;;;;5079767;28;20445;-83
2023/03/24 06:24:57;;;;;;;0.70;0.70;;;12.10;99.90;;;;;;5079452;28;20449;-83
2023/03/24 06:27:28;;;;;;;0.73;0.70;;;12.10;99.90;;;;;;5079759;28;20455;-83
2023/03/24 06:29:55;;;;;;;0.70;0.50;;;12.10;99.90;;;;;;5079661;28;20485;-83
2023/03/24 06:32:23;;;;;;;0.60;0.40;;;12.10;99.90;;;;;;5079445;28;20441;-83
2023/03/24 06:34:50;;;;;;;0.70;0.70;;;12.10;99.90;;;;;;5079605;28;20453;-83
2023/03/24 06:37:17;;;;;;;0.60;0.60;;;12.20;99.90;;;;;;5080011;28;20430;-83
2023/03/24 06:39:44;;;;;;;1.17;0.93;;;12.20;99.90;;;;;;5079338;28;20453;-83
2023/03/24 06:42:10;;;;;;;0.80;0.40;;;12.30;99.90;;;;;;5079625;28;20452;-83
2023/03/24 06:44:39;;;;;;;0.70;0.53;;;12.40;99.90;;;;;;5079600;28;20453;-83
2023/03/24 06:47:05;;;;;;;1.40;1.30;;;12.50;99.90;;;;;;5079566;28;20449;-83
2023/03/24 06:49:33;;;;;;;0.60;0.60;;;12.50;99.90;;;;;;5079128;28;20489;-83
2023/03/24 06:52:00;;;;;;;0.40;0.40;;;12.60;99.90;;;;;;5079471;28;20441;-83
2023/03/24 06:54:27;;;;;;;0.60;0.60;;;12.50;99.90;;;;;;5079572;28;20449;-83
2023/03/24 06:56:55;;;;;;;0.80;0.80;;;12.50;99.90;;;;;;5079439;28;20489;-83
2023/03/24 06:59:23;;;;;;;0.70;0.50;;;12.50;99.90;;;;;;5079419;28;20473;-83
2023/03/24 07:01:52;;;;;;;1.57;0.70;;;12.40;99.90;;;;;;5080198;28;20882;-83
2023/03/24 07:04:18;;;;;;;0.50;0.40;;;12.40;99.90;;;;;;5079368;28;20447;-83
2023/03/24 07:06:46;;;;;;;1.40;1.30;;;12.30;99.90;;;;;;5079415;28;20445;-83
2023/03/24 07:09:13;;;;;;;0.70;0.43;;;12.30;99.90;;;;;;5079259;28;20457;-83
2023/03/24 07:11:41;;;;;;;0.80;0.57;;;12.20;99.90;;;;;;5079349;28;20448;-83
2023/03/24 07:14:08;;;;;;;0.90;0.50;;;12.10;99.90;;;;;;5079303;28;20452;-83
2023/03/24 07:16:34;;;;;;;0.73;0.50;;;12.10;99.90;;;;;;5079210;28;20484;-83
2023/03/24 07:19:03;;;;;;;0.50;0.50;;;12.00;99.90;;;;;;5075943;28;20976;-82
2023/03/24 07:21:29;;;;;;;0.90;0.60;;;12.00;99.90;;;;;;5076082;28;20449;-81
2023/03/24 07:23:56;;;;;;;1.00;0.83;;;11.90;99.90;;;;;;5075818;28;20438;-81
2023/03/24 07:26:23;;;;;;;0.53;0.50;;;11.90;99.90;;;;;;5075994;28;20445;-81
2023/03/24 07:28:50;;;;;;;1.93;0.70;;;11.80;99.90;;;;;;5075901;28;20486;-81
2023/03/24 07:31:16;;;;;;;1.37;1.03;;;11.70;99.90;;;;;;5075620;28;20959;-81
2023/03/24 07:33:43;;;;;;;0.80;0.80;;;11.70;99.90;;;;;;5075877;28;20448;-81
2023/03/24 07:36:11;;;;;;;0.97;0.67;;;11.60;99.90;;;;;;5075451;28;20973;-81
2023/03/24 07:38:38;;;;;;;0.90;0.50;;;11.60;99.90;;;;;;5075506;28;20456;-81
2023/03/24 07:41:05;;;;;;;0.87;0.50;;;11.70;99.90;;;;;;5075780;28;20441;-81
2023/03/24 07:43:32;;;;;;;0.70;0.50;;;11.60;99.90;;;;;;5076402;28;20798;-81
2023/03/24 07:45:59;;;;;;;1.33;1.00;;;11.70;99.90;;;;;;5075988;28;20442;-81
2023/03/24 07:48:26;;;;;;;2.73;1.33;;;11.60;99.90;;;;;;5075034;28;21000;-81
2023/03/24 07:50:53;;;;;;;0.90;0.70;;;11.60;99.90;;;;;;5076427;28;20877;-80
2023/03/24 07:53:21;;;;;;;0.60;0.60;;;11.60;99.90;;;;;;5075528;28;20445;-80
2023/03/24 07:55:48;;;;;;;0.50;0.50;;;11.60;99.90;;;;;;5075269;28;20516;-80
2023/03/24 07:58:15;;;;;;;0.90;0.67;;;11.60;99.90;;;;;;5075336;28;20446;-80
2023/03/24 08:00:42;;;;;;;0.97;0.80;;;11.60;99.90;;;;;;5075218;28;20961;-80
2023/03/24 08:03:12;;;;;;;0.50;0.47;;;11.60;99.90;;;;;;5075254;28;20455;-80
2023/03/24 08:05:40;;;;;;;0.57;0.50;;;11.60;99.90;;;;;;5076140;28;20826;-81
2023/03/24 08:08:07;;;;;;;0.70;0.50;;;11.60;99.90;;;;;;5075180;28;20507;-80
2023/03/24 08:10:36;;;;;;;0.57;0.57;;;11.60;99.90;;;;;;5075191;28;20453;-81
2023/03/24 08:13:03;;;;;;;2.30;0.80;;;11.60;99.90;;;;;;5075095;28;20470;-80
2023/03/24 08:15:29;;;;;;;0.80;0.60;;;11.70;99.90;;;;;;5074797;28;20482;-80
2023/03/24 08:17:56;;;;;;;0.97;0.70;;;11.80;99.90;;;;;;5074757;28;20948;-80
2023/03/24 08:20:25;;;;;;;0.60;0.40;;;11.90;99.90;;;;;;5074909;28;20473;-80
2023/03/24 08:22:54;;;;;;;0.80;0.60;;;11.80;99.90;;;;;;5075098;28;20446;-80
2023/03/24 08:25:23;;;;;;;2.60;1.23;;;11.90;99.90;;;;;;5074944;28;20484;-80
2023/03/24 08:27:52;;;;;;;1.83;1.00;;;11.90;99.90;;;;;;5074854;28;20456;-80
2023/03/24 08:30:20;;;;;;;1.23;0.63;;;11.80;99.90;;;;;;5074412;28;20463;-80
2023/03/24 08:32:49;;;;;;;0.97;0.80;;;11.70;99.90;;;;;;5074787;28;20438;-80
2023/03/24 08:35:18;;;;;;;1.07;0.57;;;11.80;99.90;;;;;;5074301;28;20965;-80
2023/03/24 08:37:45;;;;;;;0.60;0.60;;;11.80;99.90;;;;;;5074868;28;20496;-81
2023/03/24 08:40:17;;;;;;;1.37;1.27;;;11.80;99.90;;;;;;5074510;28;20481;-81
2023/03/24 08:42:44;;;;;;;9.73;0.97;;;11.80;99.90;;;;;;5074739;28;20437;-81
2023/03/24 08:45:13;;;;;;;0.50;0.50;;;11.70;99.90;;;;;;5074472;28;20446;-81
2023/03/24 08:47:40;;;;;;;2.50;0.83;;;11.70;99.90;;;;;;5074396;28;20452;-81
2023/03/24 08:50:09;;;;;;;1.13;0.70;;;11.80;99.90;;;;;;5073902;28;20516;-81
2023/03/24 08:52:36;;;;;;;0.90;0.80;;;11.80;99.90;;;;;;5074054;28;20440;-81
2023/03/24 08:55:03;;;;;;;0.60;0.60;;;12.00;99.90;;;;;;5074351;28;20422;-81
2023/03/24 08:57:30;;;;;;;0.60;0.60;;;12.00;99.90;;;;;;5074343;28;20481;-82
2023/03/24 08:59:57;;;;;;;0.73;0.70;;;12.10;99.90;;;;;;5074140;28;20480;-82
2023/03/24 09:02:26;;;;;;;0.50;0.50;;;12.20;99.90;;;;;;5073807;28;20964;-81
2023/03/24 09:04:54;;;;;;;0.60;0.60;;;12.10;99.90;;;;;;5074116;28;20884;-81
2023/03/24 09:07:21;;;;;;;1.10;0.80;;;12.10;99.90;;;;;;5074306;28;20529;-82
2023/03/24 09:09:48;;;;;;;4.27;1.73;;;12.10;99.90;;;;;;5073583;28;20477;-81
2023/03/24 09:12:15;;;;;;;1.23;0.83;;;12.10;99.90;;;;;;5073705;28;20457;-82
2023/03/24 09:14:42;;;;;;;0.57;0.47;;;12.20;99.90;;;;;;5073946;28;20453;-81
2023/03/24 09:17:08;;;;;;;0.93;0.73;;;12.20;99.90;;;;;;5073860;28;20477;-82
2023/03/24 09:19:36;;;;;;;0.60;0.60;;;12.30;99.90;;;;;;5073836;28;20484;-82
2023/03/24 09:22:03;;;;;;;1.90;1.00;;;12.40;99.90;;;;;;5073520;28;20451;-82
2023/03/24 09:24:30;;;;;;;0.93;0.60;;;12.50;99.90;;;;;;5073813;28;20450;-82
2023/03/24 09:26:57;;;;;;;0.90;0.63;;;12.60;99.90;;;;;;5073483;28;20953;-82
2023/03/24 09:29:23;;;;;;;1.23;0.97;;;12.70;99.90;;;;;;5073982;28;20461;-82
2023/03/24 09:31:52;;;;;;;0.83;0.80;;;12.80;99.90;;;;;;5073427;28;20434;-82
2023/03/24 09:34:19;;;;;;;0.83;0.83;;;13.10;99.90;;;;;;5073615;28;20444;-82
2023/03/24 09:36:48;;;;;;;1.30;1.07;;;13.50;99.90;;;;;;5073380;28;20480;-82
2023/03/24 09:39:15;;;;;;;1.97;1.00;;;14.20;99.90;;;;;;5073524;28;20484;-82
2023/03/24 09:41:44;;;;;;;1.30;0.70;;;14.60;99.90;;;;;;5072895;28;20532;-82
2023/03/24 09:44:21;;;;;;;1.60;0.93;;;14.70;99.90;;;;;;5073772;28;20437;-82
2023/03/24 09:46:51;;;;;;;0.90;0.50;;;14.90;99.90;;;;;;5073536;28;20414;-82
2023/03/24 09:49:24;;;;;;;0.50;0.50;;;15.10;99.90;;;;;;5072965;28;20494;-82
2023/03/24 09:51:56;;;;;;;0.57;0.50;;;15.10;99.90;;;;;;5073199;28;20469;-82
2023/03/24 09:54:32;;;;;;;0.60;0.60;;;15.10;99.90;;;;;;5073185;28;21020;-82
2023/03/24 09:56:59;;;;;;;0.77;0.77;;;15.50;99.90;;;;;;5073090;28;20998;-82
2023/03/24 09:59:34;;;;;;;0.50;0.50;;;16.40;99.90;;;;;;5073307;28;20505;-82
2023/03/24 10:02:02;;;;;;;1.13;0.57;;;17.50;99.90;;;;;;5073096;28;20999;-82
2023/03/24 10:04:31;;;;;;;0.80;0.60;;;17.40;99.90;;;;;;5073996;28;20484;-82
2023/03/24 10:07:07;;;;;;;0.83;0.77;;;17.10;99.90;;;;;;5073278;28;20438;-82
2023/03/24 10:09:35;;;;;;;0.50;0.50;;;17.50;99.90;;;;;;5073244;28;20477;-82
2023/03/24 10:12:16;;;;;;;0.50;0.40;;;17.30;99.90;;;;;;5073244;28;20449;-82
2023/03/24 10:15:04;;;;;;;0.67;0.60;;;17.10;99.90;;;;;;5073297;28;20441;-82
2023/03/24 10:17:41;;;;;;;1.00;0.90;;;17.10;99.90;;;;;;5073142;28;20477;-82
2023/03/24 10:20:18;;;;;;;1.30;0.50;;;17.70;99.90;;;;;;5072864;28;20969;-82
2023/03/24 10:22:55;;;;;;;0.50;0.50;;;17.60;99.90;;;;;;5073804;28;20450;-82
2023/03/24 10:25:26;;;;;;;0.60;0.60;;;17.60;99.90;;;;;;5072865;28;20459;-82
2023/03/24 10:27:58;;;;;;;0.50;0.50;;;18.00;99.90;;;;;;5073118;28;20430;-82
2023/03/24 10:30:28;;;;;;;0.87;0.50;;;18.80;99.90;;;;;;5073750;28;20480;-83
2023/03/24 10:32:55;;;;;;;0.47;0.40;;;19.00;99.90;;;;;;5072789;28;20490;-83
2023/03/24 10:35:25;;;;;;;1.13;0.60;;;18.60;99.90;;;;;;5072704;28;20952;-82
2023/03/24 10:37:58;;;;;;;0.40;0.40;;;18.20;99.90;;;;;;5072979;28;20481;-83
2023/03/24 10:40:32;;;;;;;1.10;0.50;;;18.10;99.90;;;;;;5072687;28;20465;-83
2023/03/24 10:43:02;;;;;;;0.70;0.53;;;17.90;99.90;;;;;;5073393;28;20875;-83
2023/03/24 10:45:32;;;;;;;0.43;0.40;;;17.50;99.90;;;;;;5072980;28;20524;-83
2023/03/24 10:48:01;;;;;;;0.40;0.30;;;17.40;99.90;;;;;;5072975;28;20463;-83
2023/03/24 10:50:31;;;;;;;0.80;0.50;;;17.20;99.90;;;;;;5072467;28;20503;-84
2023/03/24 10:52:59;;;;;;;0.70;0.40;;;17.00;99.90;;;;;;5073188;28;20812;-83
2023/03/24 10:55:31;;;;;;;0.57;0.50;;;16.90;99.90;;;;;;5076574;28;20453;-83
2023/03/24 10:58:00;;;;;;;0.50;0.50;;;16.90;99.90;;;;;;5076570;28;20466;-83
2023/03/24 11:00:30;;;;;;;0.50;0.50;;;17.00;99.90;;;;;;5076155;28;20969;-84
2023/03/24 11:03:00;;;;;;;0.67;0.50;;;17.00;99.90;;;;;;5076523;28;20521;-84
2023/03/24 11:05:30;;;;;;;0.70;0.40;;;17.10;99.90;;;;;;5076676;28;20516;-84
2023/03/24 11:08:11;;;;;;;0.50;0.47;;;17.70;99.90;;;;;;5076358;28;20441;-84
2023/03/24 11:10:38;;;;;;;0.60;0.47;;;18.30;99.90;;;;;;5076268;28;20429;-84
2023/03/24 11:13:06;;;;;;;0.93;0.47;;;18.40;99.90;;;;;;5076257;28;20457;-84
2023/03/24 11:15:36;;;;;;;2.27;0.40;;;18.40;99.90;;;;;;5076246;28;20457;-84
2023/03/24 11:18:14;;;;;;;0.50;0.40;;;18.20;99.90;;;;;;5075756;28;20867;-84
2023/03/24 11:20:44;;;;;;;0.50;0.40;;;18.30;99.90;;;;;;5076977;28;20936;-84
2023/03/24 11:23:19;;;;;;;0.40;0.30;;;18.20;99.90;;;;;;5075855;28;20434;-84
2023/03/24 11:25:50;;;;;;;0.60;0.40;;;18.00;99.90;;;;;;5075748;28;20533;-84
2023/03/24 11:28:21;;;;;;;0.50;0.40;;;17.70;99.90;;;;;;5076014;28;20426;-85
2023/03/24 11:30:50;;;;;;;0.60;0.40;;;17.50;99.90;;;;;;5075961;28;20441;-84
2023/03/24 11:33:21;;;;;;;0.90;0.50;;;17.50;99.90;;;;;;5075987;28;20453;-84
2023/03/24 11:35:48;;;;;;;0.50;0.47;;;17.60;99.90;;;;;;5075613;28;20529;-84
2023/03/24 11:38:19;;;;;;;0.70;0.50;;;17.60;99.90;;;;;;5075679;28;20477;-84
2023/03/24 11:40:57;;;;;;;0.40;0.40;;;17.40;99.90;;;;;;5076007;28;20430;-84
2023/03/24 11:43:24;;;;;;;0.40;0.40;;;17.20;99.90;;;;;;5075611;28;20925;-85
2023/03/24 11:45:58;;;;;;;0.43;0.40;;;16.90;99.90;;;;;;5075399;28;20940;-85
2023/03/24 11:48:31;;;;;;;0.60;0.30;;;16.60;99.90;;;;;;5075469;28;20461;-84
2023/03/24 11:51:00;;;;;;;0.30;0.30;;;16.50;99.90;;;;;;5075726;28;20449;-84
2023/03/24 11:53:33;;;;;;;0.40;0.30;;;16.30;99.90;;;;;;5075292;28;20941;-85
2023/03/24 11:56:05;;;;;;;0.40;0.33;;;16.30;99.90;;;;;;5075650;28;20453;-84
2023/03/24 11:58:38;;;;;;;0.50;0.40;;;16.10;99.90;;;;;;5075403;28;20496;-85
2023/03/24 12:01:12;;;;;;;0.40;0.30;;;16.20;99.90;;;;;;5075145;28;20936;-85
2023/03/24 12:04:03;;;;;;;0.30;0.30;;;16.30;99.90;;;;;;5075123;28;20441;-85
2023/03/24 12:06:49;;;;;;;0.30;0.30;;;16.50;99.90;;;;;;5075657;28;20430;-84
2023/03/24 12:09:30;;;;;;;0.40;0.30;;;16.70;99.90;;;;;;5075225;28;20469;-84
2023/03/24 12:12:15;;;;;;;0.40;0.30;;;16.90;99.90;;;;;;5076264;28;20445;-84
2023/03/24 12:15:07;;;;;;;0.40;0.30;;;16.90;99.90;;;;;;5074893;28;20449;-83
2023/03/24 12:17:40;;;;;;;0.40;0.33;;;16.90;99.90;;;;;;5075070;28;20476;-85
2023/03/24 12:20:19;;;;;;;0.60;0.40;;;16.80;99.90;;;;;;5075055;28;20477;-85
2023/03/24 12:22:55;;;;;;;0.30;0.30;;;16.90;99.90;;;;;;5074761;28;20434;-85
2023/03/24 12:25:34;;;;;;;0.40;0.30;;;16.90;99.90;;;;;;5074749;28;20921;-85
2023/03/24 12:28:15;;;;;;;0.30;0.30;;;16.90;99.90;;;;;;5074968;28;20437;-85
2023/03/24 12:30:50;;;;;;;0.40;0.30;;;16.70;99.90;;;;;;5074631;28;20996;-85
2023/03/24 12:33:37;;;;;;;0.30;0.30;;;16.70;99.90;;;;;;5074581;28;20881;-84
2023/03/24 12:36:15;;;;;;;0.80;0.40;;;16.50;99.90;;;;;;5074486;28;20434;-85
2023/03/24 12:39:00;;;;;;;0.70;0.30;;;16.30;99.90;;;;;;5074287;28;20485;-85
2023/03/24 12:41:40;;;;;;;0.30;0.30;;;16.10;99.90;;;;;;5074746;28;20442;-85
2023/03/24 12:44:34;;;;;;;0.40;0.30;;;15.90;99.90;;;;;;5074585;28;20440;-85
2023/03/24 12:47:12;;;;;;;0.40;0.30;;;15.90;99.90;;;;;;5074446;28;20422;-85
2023/03/24 12:50:04;;;;;;;0.50;0.30;;;15.90;99.90;;;;;;5074097;28;20564;-85
2023/03/24 12:52:52;;;;;;;0.40;0.40;;;15.80;99.90;;;;;;5074331;28;20453;-85
2023/03/24 12:55:25;;;;;;;0.40;0.30;;;15.80;99.90;;;;;;5074232;28;20862;-85
2023/03/24 12:57:59;;;;;;;0.30;0.30;;;15.90;99.90;;;;;;5074193;28;20555;-83
2023/03/24 13:00:30;;;;;;;0.40;0.33;;;15.90;99.90;;;;;;5074140;28;20418;-84
2023/03/24 13:03:00;;;;;;;0.37;0.30;;;16.00;99.90;;;;;;5074108;28;20457;-84
2023/03/24 13:05:30;;;;;;;0.50;0.30;;;15.90;99.90;;;;;;5073928;28;20930;-84
2023/03/24 13:08:02;;;;;;;0.40;0.30;;;16.10;99.90;;;;;;5073820;28;20507;-83